createdAt,value
2022-07-29T00:00:00.625Z,14.25
2022-07-29T00:02:30.863Z,14.16
2022-07-29T00:04:59.624Z,14.10
2022-07-29T00:07:28.369Z,14.13
2022-07-29T00:09:57.142Z,14.12
2022-07-29T00:12:27.166Z,14.04
2022-07-29T00:14:57.048Z,14.04
2022-07-29T00:17:26.578Z,14.02
2022-07-29T00:19:56.586Z,14.02
2022-07-29T00:22:25.893Z,13.92
2022-07-29T00:24:55.335Z,13.92
2022-07-29T00:27:24.135Z,13.89
2022-07-29T00:29:53.033Z,13.94
2022-07-29T00:32:21.706Z,13.90
2022-07-29T00:35:07.559Z,13.87
2022-07-29T00:37:37.894Z,13.78
2022-07-29T00:40:08.343Z,13.81
2022-07-29T00:42:44.427Z,13.97
2022-07-29T00:45:14.277Z,13.95
2022-07-29T00:47:43.129Z,13.80
2022-07-29T00:50:14.363Z,13.88
2022-07-29T00:52:45.606Z,13.82
2022-07-29T00:55:17.152Z,13.95
2022-07-29T00:57:47.269Z,13.96
2022-07-29T01:00:19.482Z,13.89
2022-07-29T01:02:49.422Z,13.89
2022-07-29T01:05:21.011Z,13.87
2022-07-29T01:07:54.601Z,13.91
2022-07-29T01:10:24.933Z,13.89
2022-07-29T01:12:55.903Z,13.80
2022-07-29T01:15:25.457Z,13.87
2022-07-29T01:18:01.733Z,13.88
2022-07-29T01:20:52.267Z,13.82
2022-07-29T01:23:54.911Z,13.83
2022-07-29T01:26:47.973Z,13.79
2022-07-29T01:29:30.377Z,13.91
2022-07-29T01:32:18.222Z,13.82
2022-07-29T01:35:04.285Z,13.76
2022-07-29T01:37:40.590Z,13.74
2022-07-29T01:40:23.368Z,13.73
2022-07-29T01:42:56.558Z,13.74
2022-07-29T01:45:32.108Z,13.75
2022-07-29T01:48:05.504Z,13.73
2022-07-29T01:50:38.083Z,13.79
2022-07-29T01:53:10.389Z,13.75
2022-07-29T01:55:42.484Z,13.70
2022-07-29T01:58:12.923Z,13.72
2022-07-29T02:00:45.346Z,13.76
2022-07-29T02:03:16.786Z,13.77
2022-07-29T02:05:47.829Z,13.78
2022-07-29T02:08:18.847Z,13.86
2022-07-29T02:10:49.417Z,13.89
2022-07-29T02:13:20.286Z,13.90
2022-07-29T02:15:53.370Z,13.92
2022-07-29T02:18:25.087Z,13.93
2022-07-29T02:20:57.339Z,13.93
2022-07-29T02:23:27.155Z,13.92
2022-07-29T02:25:58.742Z,13.96
2022-07-29T02:28:30.107Z,14.01
2022-07-29T02:31:03.498Z,14.00
2022-07-29T02:33:33.362Z,14.01
2022-07-29T02:36:04.053Z,14.00
2022-07-29T02:38:51.395Z,14.03
2022-07-29T02:41:25.826Z,14.03
2022-07-29T02:43:59.513Z,14.05
2022-07-29T02:46:34.560Z,14.09
2022-07-29T02:49:10.884Z,14.10
2022-07-29T02:51:45.286Z,14.12
2022-07-29T02:54:24.189Z,14.12
2022-07-29T02:56:56.541Z,14.13
2022-07-29T02:59:28.830Z,14.16
2022-07-29T03:02:01.658Z,14.11
2022-07-29T03:04:32.940Z,14.15
2022-07-29T03:07:03.072Z,14.14
2022-07-29T03:09:32.288Z,14.18
2022-07-29T03:12:02.505Z,14.06
2022-07-29T03:14:33.120Z,14.01
2022-07-29T03:17:03.670Z,14.02
2022-07-29T03:19:33.207Z,14.01
2022-07-29T03:22:02.058Z,14.00
2022-07-29T03:24:33.837Z,13.97
2022-07-29T03:27:02.927Z,13.94
2022-07-29T03:29:33.425Z,14.00
2022-07-29T03:32:08.628Z,13.97
2022-07-29T03:34:39.372Z,14.04
2022-07-29T03:37:09.151Z,14.01
2022-07-29T03:39:42.739Z,13.97
2022-07-29T03:42:15.365Z,13.96
2022-07-29T03:44:49.321Z,13.90
2022-07-29T03:47:23.231Z,13.88
2022-07-29T03:50:15.061Z,13.81
2022-07-29T03:52:45.227Z,13.79
2022-07-29T03:55:14.686Z,13.78
2022-07-29T03:57:44.279Z,13.83
2022-07-29T04:00:14.171Z,13.83
2022-07-29T04:02:49.456Z,13.89
2022-07-29T04:05:20.566Z,13.86
2022-07-29T04:07:50.182Z,13.92
2022-07-29T04:10:30.037Z,13.96
2022-07-29T04:13:00.743Z,13.94
2022-07-29T04:15:30.925Z,13.96
2022-07-29T04:18:02.066Z,13.93
2022-07-29T04:20:31.123Z,13.91
2022-07-29T04:22:59.791Z,13.91
2022-07-29T04:25:28.470Z,13.92
2022-07-29T04:28:03.046Z,13.89
2022-07-29T04:30:32.128Z,13.78
2022-07-29T04:33:02.638Z,13.82
2022-07-29T04:35:38.391Z,13.88
2022-07-29T04:38:15.567Z,13.91
2022-07-29T04:40:47.136Z,13.98
2022-07-29T04:43:21.275Z,14.09
2022-07-29T04:45:52.382Z,14.09
2022-07-29T04:48:28.223Z,14.24
2022-07-29T04:50:57.764Z,14.22
2022-07-29T04:53:27.557Z,14.25
2022-07-29T04:55:56.141Z,14.36
2022-07-29T04:58:25.372Z,14.40
2022-07-29T05:00:54.201Z,14.50
2022-07-29T05:03:24.163Z,14.69
2022-07-29T05:05:52.951Z,14.80
2022-07-29T05:08:21.520Z,14.83
2022-07-29T05:10:50.149Z,14.94
2022-07-29T05:13:18.801Z,15.03
2022-07-29T05:15:47.473Z,14.99
2022-07-29T05:18:16.469Z,15.10
2022-07-29T05:20:46.415Z,15.20
2022-07-29T05:23:15.648Z,15.30
2022-07-29T05:25:45.030Z,15.32
2022-07-29T05:28:14.458Z,15.43
2022-07-29T05:30:43.325Z,15.61
2022-07-29T05:33:35.544Z,15.62
2022-07-29T05:36:02.102Z,15.75
2022-07-29T05:38:31.656Z,15.92
2022-07-29T05:41:00.687Z,15.99
2022-07-29T05:43:29.552Z,16.11
2022-07-29T05:45:58.838Z,16.06
2022-07-29T05:48:27.778Z,16.17
2022-07-29T05:50:57.283Z,16.16
2022-07-29T05:53:27.355Z,16.22
2022-07-29T05:55:56.253Z,16.37
2022-07-29T05:58:25.042Z,16.47
2022-07-29T06:00:53.842Z,16.37
2022-07-29T06:03:22.454Z,16.40
2022-07-29T06:05:51.204Z,16.47
2022-07-29T06:08:19.904Z,16.32
2022-07-29T06:10:50.012Z,16.48
2022-07-29T06:13:18.745Z,16.50
2022-07-29T06:15:48.051Z,16.54
2022-07-29T06:18:16.951Z,16.67
2022-07-29T06:20:45.676Z,16.77
2022-07-29T06:23:14.450Z,16.74
2022-07-29T06:25:43.170Z,16.90
2022-07-29T06:28:13.376Z,17.16
2022-07-29T06:30:42.463Z,17.19
2022-07-29T06:33:11.018Z,17.04
2022-07-29T06:35:42.008Z,17.12
2022-07-29T06:38:31.798Z,17.10
2022-07-29T06:41:04.894Z,17.12
2022-07-29T06:43:42.654Z,17.34
2022-07-29T06:46:21.899Z,17.42
2022-07-29T06:48:51.541Z,17.45
2022-07-29T06:51:23.332Z,17.49
2022-07-29T06:53:58.368Z,17.80
2022-07-29T06:56:32.304Z,18.01
2022-07-29T06:59:09.522Z,18.24
2022-07-29T07:01:39.335Z,18.10
2022-07-29T07:04:09.651Z,18.11
2022-07-29T07:06:38.855Z,18.24
2022-07-29T07:09:08.956Z,18.48
2022-07-29T07:11:37.651Z,18.29
2022-07-29T07:14:06.153Z,18.50
2022-07-29T07:16:36.652Z,18.42
2022-07-29T07:19:05.294Z,18.25
2022-07-29T07:21:35.165Z,18.69
2022-07-29T07:24:04.788Z,18.81
2022-07-29T07:26:33.492Z,18.70
2022-07-29T07:29:02.016Z,18.78
2022-07-29T07:31:30.721Z,18.83
2022-07-29T07:34:00.675Z,19.01
2022-07-29T07:36:30.079Z,19.15
2022-07-29T07:39:01.127Z,19.36
2022-07-29T07:41:32.471Z,19.41
2022-07-29T07:44:01.509Z,19.69
2022-07-29T07:46:30.201Z,19.96
2022-07-29T07:49:00.427Z,19.84
2022-07-29T07:51:29.072Z,20.03
2022-07-29T07:53:57.689Z,19.88
2022-07-29T07:56:27.440Z,19.77
2022-07-29T07:58:58.630Z,20.06
2022-07-29T08:01:27.259Z,19.82
2022-07-29T08:03:55.918Z,19.85
2022-07-29T08:06:26.367Z,19.80
2022-07-29T08:08:56.457Z,20.00
2022-07-29T08:11:25.207Z,19.96
2022-07-29T08:13:54.211Z,20.33
2022-07-29T08:16:23.277Z,20.24
2022-07-29T08:18:51.833Z,20.34
2022-07-29T08:21:20.969Z,20.20
2022-07-29T08:24:00.678Z,20.16
2022-07-29T08:26:29.405Z,20.12
2022-07-29T08:28:57.898Z,20.20
2022-07-29T08:31:26.581Z,20.40
2022-07-29T08:33:57.147Z,20.61
2022-07-29T08:36:25.993Z,20.89
2022-07-29T08:38:56.110Z,20.83
2022-07-29T08:41:24.943Z,21.05
2022-07-29T08:43:53.955Z,21.18
2022-07-29T08:46:24.730Z,21.18
2022-07-29T08:48:53.504Z,21.45
2022-07-29T08:51:23.392Z,21.51
2022-07-29T08:53:52.670Z,21.77
2022-07-29T08:56:24.108Z,22.09
2022-07-29T08:58:52.824Z,22.36
2022-07-29T09:01:36.448Z,22.41
2022-07-29T09:04:13.379Z,22.68
2022-07-29T09:06:48.517Z,22.92
2022-07-29T09:09:17.191Z,22.84
2022-07-29T09:11:47.877Z,22.98
2022-07-29T09:14:16.984Z,23.09
2022-07-29T09:16:53.229Z,23.09
2022-07-29T09:19:32.193Z,23.03
2022-07-29T09:22:04.080Z,23.52
2022-07-29T09:24:41.821Z,23.55
2022-07-29T09:27:23.034Z,23.77
2022-07-29T09:29:59.812Z,24.20
2022-07-29T09:32:29.100Z,24.55
2022-07-29T09:35:16.779Z,24.64
2022-07-29T09:37:46.082Z,25.35
2022-07-29T09:40:17.878Z,25.91
2022-07-29T09:42:48.523Z,25.68
2022-07-29T09:45:29.483Z,26.15
2022-07-29T09:48:01.404Z,26.20
2022-07-29T09:50:41.279Z,27.13
2022-07-29T09:53:11.361Z,26.62
2022-07-29T09:55:51.856Z,26.30
2022-07-29T09:58:23.695Z,26.42
2022-07-29T10:00:53.962Z,26.80
2022-07-29T10:03:23.893Z,26.63
2022-07-29T10:06:07.569Z,26.08
2022-07-29T10:08:36.462Z,26.31
2022-07-29T10:11:12.967Z,26.44
2022-07-29T10:13:44.353Z,26.70
2022-07-29T10:16:13.828Z,26.82
2022-07-29T10:18:44.603Z,26.69
2022-07-29T10:21:22.554Z,26.91
2022-07-29T10:24:02.814Z,26.85
2022-07-29T10:26:32.401Z,26.25
2022-07-29T10:29:02.673Z,26.43
2022-07-29T10:31:44.701Z,26.25
2022-07-29T10:34:21.292Z,26.17
2022-07-29T10:36:59.082Z,26.37
2022-07-29T10:39:45.165Z,26.37
2022-07-29T10:42:29.504Z,26.36
2022-07-29T10:45:05.860Z,26.47
2022-07-29T10:47:35.466Z,26.96
2022-07-29T10:50:06.736Z,26.90
2022-07-29T10:52:58.737Z,27.21
2022-07-29T10:55:35.779Z,27.60
2022-07-29T10:58:24.704Z,28.41
2022-07-29T11:00:57.661Z,28.95
2022-07-29T11:03:50.761Z,30.02
2022-07-29T11:06:26.162Z,30.03
2022-07-29T11:09:27.354Z,30.67
2022-07-29T11:12:27.098Z,29.91
2022-07-29T11:15:01.452Z,30.16
2022-07-29T11:17:37.510Z,30.65
2022-07-29T11:20:41.449Z,31.32
2022-07-29T11:23:24.958Z,30.51
2022-07-29T11:26:24.781Z,30.68
2022-07-29T11:28:58.891Z,31.89
2022-07-29T11:31:39.026Z,31.69
2022-07-29T11:34:34.820Z,32.50
2022-07-29T11:37:27.956Z,31.15
2022-07-29T11:40:13.155Z,29.86
2022-07-29T11:42:44.530Z,28.95
2022-07-29T11:45:44.095Z,28.40
2022-07-29T11:48:27.679Z,28.61
2022-07-29T11:53:52.507Z,28.76
2022-07-29T11:56:25.725Z,29.01
2022-07-29T11:59:06.094Z,29.07
2022-07-29T12:01:37.237Z,28.71
2022-07-29T12:04:07.011Z,28.78
2022-07-29T12:06:37.109Z,28.69
2022-07-29T12:09:14.399Z,28.51
2022-07-29T12:11:44.992Z,28.09
2022-07-29T12:14:36.805Z,27.79
2022-07-29T12:17:06.376Z,27.18
2022-07-29T12:19:44.449Z,27.11
2022-07-29T12:22:14.964Z,27.42
2022-07-29T12:24:46.604Z,27.48
2022-07-29T12:27:29.278Z,27.79
2022-07-29T12:29:58.949Z,27.84
2022-07-29T12:32:33.770Z,28.09
2022-07-29T12:35:06.790Z,28.06
2022-07-29T12:37:40.862Z,28.11
2022-07-29T12:40:12.160Z,28.07
2022-07-29T12:42:41.702Z,28.06
2022-07-29T12:45:10.718Z,27.90
2022-07-29T12:47:54.572Z,28.66
2022-07-29T12:50:26.312Z,28.62
2022-07-29T12:52:56.621Z,28.97
2022-07-29T12:55:44.589Z,28.82
2022-07-29T12:58:13.230Z,28.32
2022-07-29T13:00:42.200Z,28.32
2022-07-29T13:03:10.706Z,27.98
2022-07-29T13:05:49.217Z,28.00
2022-07-29T13:08:22.236Z,28.08
2022-07-29T13:10:51.869Z,28.08
2022-07-29T13:13:20.480Z,28.23
2022-07-29T13:16:08.474Z,28.69
2022-07-29T13:18:38.388Z,28.70
2022-07-29T13:21:13.627Z,28.31
2022-07-29T13:23:44.558Z,29.12
2022-07-29T13:26:14.014Z,28.53
2022-07-29T13:28:44.294Z,28.37
2022-07-29T13:31:13.295Z,28.07
2022-07-29T13:33:42.224Z,28.06
2022-07-29T13:36:10.979Z,27.79
2022-07-29T13:38:39.648Z,27.74
2022-07-29T13:41:10.226Z,27.89
2022-07-29T13:43:39.473Z,27.63
2022-07-29T13:46:08.172Z,27.80
2022-07-29T13:48:37.034Z,27.69
2022-07-29T13:51:05.707Z,27.24
2022-07-29T13:53:34.628Z,27.46
2022-07-29T13:56:03.298Z,27.41
2022-07-29T13:58:33.381Z,27.24
2022-07-29T14:01:02.599Z,26.87
2022-07-29T14:03:31.579Z,26.87
2022-07-29T14:06:00.936Z,27.12
2022-07-29T14:08:30.042Z,26.99
2022-07-29T14:10:58.516Z,27.03
2022-07-29T14:13:27.145Z,27.43
2022-07-29T14:15:57.182Z,27.39
2022-07-29T14:18:25.787Z,27.17
2022-07-29T14:20:54.516Z,27.30
2022-07-29T14:23:23.211Z,27.37
2022-07-29T14:25:51.939Z,27.54
2022-07-29T14:28:22.043Z,27.91
2022-07-29T14:30:50.604Z,28.17
2022-07-29T14:33:20.511Z,27.63
2022-07-29T14:35:49.412Z,27.88
2022-07-29T14:38:18.051Z,27.85
2022-07-29T14:40:47.552Z,27.82
2022-07-29T14:43:19.729Z,27.62
2022-07-29T14:45:50.669Z,27.28
2022-07-29T14:48:20.764Z,27.27
2022-07-29T14:50:49.337Z,26.56
2022-07-29T14:53:18.146Z,26.55
2022-07-29T14:55:46.707Z,26.47
2022-07-29T14:58:16.671Z,26.33
2022-07-29T15:00:45.272Z,26.16
2022-07-29T15:03:22.927Z,26.10
2022-07-29T15:05:54.371Z,25.78
2022-07-29T15:08:23.040Z,25.67
2022-07-29T15:10:51.451Z,25.37
2022-07-29T15:13:20.046Z,25.41
2022-07-29T15:15:48.492Z,25.22
2022-07-29T15:18:25.808Z,25.15
2022-07-29T15:20:55.999Z,25.20
2022-07-29T15:23:24.767Z,25.10
2022-07-29T15:25:53.419Z,25.09
2022-07-29T15:28:22.096Z,25.10
2022-07-29T15:30:50.818Z,25.01
2022-07-29T15:33:19.860Z,24.93
2022-07-29T15:35:48.590Z,24.90
2022-07-29T15:38:20.011Z,24.92
2022-07-29T15:40:59.375Z,25.01
2022-07-29T15:43:28.088Z,25.05
2022-07-29T15:46:14.602Z,25.08
2022-07-29T15:48:43.290Z,24.95
2022-07-29T15:51:11.922Z,24.87
2022-07-29T15:53:42.087Z,24.96
2022-07-29T15:56:10.792Z,24.90
2022-07-29T15:58:39.644Z,25.07
2022-07-29T16:01:08.334Z,24.99
2022-07-29T16:03:37.569Z,25.08
2022-07-29T16:06:06.739Z,25.02
2022-07-29T16:08:35.249Z,25.00
2022-07-29T16:11:06.305Z,25.09
2022-07-29T16:13:35.211Z,24.92
2022-07-29T16:16:03.864Z,24.88
2022-07-29T16:18:32.439Z,24.91
2022-07-29T16:21:01.018Z,24.85
2022-07-29T16:23:29.889Z,24.70
2022-07-29T16:26:00.486Z,24.63
2022-07-29T16:28:31.862Z,24.65
2022-07-29T16:31:01.010Z,24.52
2022-07-29T16:33:54.584Z,24.39
2022-07-29T16:36:18.821Z,24.33
2022-07-29T16:38:47.666Z,24.32
2022-07-29T16:41:16.532Z,24.33
2022-07-29T16:43:46.532Z,24.13
2022-07-29T16:46:19.222Z,24.14
2022-07-29T16:48:49.332Z,24.13
2022-07-29T16:51:18.100Z,24.12
2022-07-29T16:53:49.829Z,23.94
2022-07-29T16:56:19.198Z,23.83
2022-07-29T16:58:49.271Z,23.84
2022-07-29T17:01:18.230Z,23.71
2022-07-29T17:04:04.603Z,23.52
2022-07-29T17:06:35.042Z,23.23
2022-07-29T17:09:05.727Z,23.04
2022-07-29T17:11:51.684Z,22.90
2022-07-29T17:14:25.965Z,22.67
2022-07-29T17:17:00.441Z,22.52
2022-07-29T17:19:31.835Z,22.30
2022-07-29T17:22:09.447Z,21.95
2022-07-29T17:24:41.826Z,21.62
2022-07-29T17:27:11.055Z,21.31
2022-07-29T17:29:41.608Z,21.05
2022-07-29T17:32:11.885Z,20.95
2022-07-29T17:34:42.436Z,20.77
2022-07-29T17:37:12.647Z,20.81
2022-07-29T17:39:42.651Z,20.75
2022-07-29T17:42:13.679Z,20.71
2022-07-29T17:44:43.784Z,20.72
2022-07-29T17:47:15.956Z,20.74
2022-07-29T17:49:45.475Z,20.79
2022-07-29T17:52:14.024Z,20.80
2022-07-29T17:54:42.646Z,20.80
2022-07-29T17:57:11.132Z,20.80
2022-07-29T17:59:39.691Z,20.81
2022-07-29T18:02:12.762Z,20.90
2022-07-29T18:04:41.391Z,21.10
2022-07-29T18:07:10.589Z,21.25
2022-07-29T18:09:39.084Z,21.28
2022-07-29T18:12:08.973Z,21.33
2022-07-29T18:14:37.519Z,21.37
2022-07-29T18:17:06.167Z,21.42
2022-07-29T18:19:35.986Z,21.44
2022-07-29T18:22:05.416Z,21.48
2022-07-29T18:24:35.847Z,21.52
2022-07-29T18:27:04.367Z,21.52
2022-07-29T18:29:33.145Z,21.49
2022-07-29T18:32:01.748Z,21.51
2022-07-29T18:34:30.523Z,21.48
2022-07-29T18:37:01.072Z,21.50
2022-07-29T18:39:30.006Z,21.48
2022-07-29T18:41:58.536Z,21.51
2022-07-29T18:44:27.073Z,21.44
2022-07-29T18:46:55.979Z,21.40
2022-07-29T18:49:27.498Z,21.39
2022-07-29T18:51:57.368Z,21.38
2022-07-29T18:54:27.323Z,21.42
2022-07-29T18:56:56.289Z,21.38
2022-07-29T18:59:25.263Z,21.34
2022-07-29T19:01:54.465Z,21.32
2022-07-29T19:04:23.256Z,21.30
2022-07-29T19:06:51.674Z,21.25
2022-07-29T19:09:20.399Z,21.24
2022-07-29T19:11:55.520Z,21.27
2022-07-29T19:14:24.710Z,21.27
2022-07-29T19:16:53.277Z,21.18
2022-07-29T19:19:22.048Z,21.01
2022-07-29T19:21:51.308Z,20.82
2022-07-29T19:24:19.900Z,20.61
2022-07-29T19:26:50.210Z,20.53
2022-07-29T19:29:18.902Z,20.39
2022-07-29T19:31:47.671Z,20.22
2022-07-29T19:34:16.198Z,20.08
2022-07-29T19:36:45.001Z,20.07
2022-07-29T19:39:13.903Z,20.08
2022-07-29T19:41:42.805Z,20.02
2022-07-29T19:44:12.923Z,20.07
2022-07-29T19:46:41.678Z,20.03
2022-07-29T19:49:10.981Z,20.12
2022-07-29T19:51:39.568Z,20.08
2022-07-29T19:54:08.457Z,20.13
2022-07-29T19:56:40.753Z,20.21
2022-07-29T19:59:12.405Z,20.21
2022-07-29T20:01:41.660Z,20.24
2022-07-29T20:04:10.257Z,20.34
2022-07-29T20:06:38.870Z,20.44
2022-07-29T20:09:07.712Z,20.52
2022-07-29T20:11:45.945Z,20.60
2022-07-29T20:14:15.911Z,20.65
2022-07-29T20:16:45.628Z,20.64
2022-07-29T20:19:14.397Z,20.61
2022-07-29T20:21:43.047Z,20.54
2022-07-29T20:24:11.829Z,20.54
2022-07-29T20:26:40.529Z,20.53
2022-07-29T20:29:09.281Z,20.52
2022-07-29T20:31:39.546Z,20.45
2022-07-29T20:34:08.093Z,20.48
2022-07-29T20:36:36.847Z,20.43
2022-07-29T20:39:05.583Z,20.36
2022-07-29T20:41:34.712Z,20.30
2022-07-29T20:44:04.285Z,20.23
2022-07-29T20:46:32.875Z,20.21
2022-07-29T20:49:02.931Z,20.13
2022-07-29T20:51:31.584Z,20.13
2022-07-29T20:54:12.043Z,20.07
2022-07-29T20:56:41.460Z,20.09
2022-07-29T20:59:10.240Z,20.12
2022-07-29T21:01:39.156Z,20.06
2022-07-29T21:04:09.417Z,20.05
2022-07-29T21:06:38.129Z,20.01
2022-07-29T21:09:06.584Z,20.04
2022-07-29T21:11:44.051Z,20.03
2022-07-29T21:14:21.870Z,20.03
2022-07-29T21:16:50.689Z,20.03
2022-07-29T21:19:21.112Z,19.99
2022-07-29T21:21:49.975Z,19.98
2022-07-29T21:24:18.457Z,19.99
2022-07-29T21:26:54.526Z,19.93
2022-07-29T21:29:27.132Z,19.93
2022-07-29T21:31:55.725Z,19.91
2022-07-29T21:34:27.995Z,19.89
2022-07-29T21:36:56.567Z,19.87
2022-07-29T21:39:25.206Z,19.87
2022-07-29T21:41:54.035Z,19.88
2022-07-29T21:44:22.669Z,19.87
2022-07-29T21:46:51.236Z,19.88
2022-07-29T21:49:20.356Z,19.83
2022-07-29T21:51:50.264Z,19.84
2022-07-29T21:54:19.372Z,19.82
2022-07-29T21:56:51.085Z,19.83
2022-07-29T21:59:30.358Z,19.81
2022-07-29T22:02:01.062Z,19.82
2022-07-29T22:04:30.451Z,19.76
2022-07-29T22:07:00.558Z,19.73
2022-07-29T22:09:29.239Z,19.72
2022-07-29T22:11:58.083Z,19.77
2022-07-29T22:14:26.986Z,19.77
2022-07-29T22:16:58.076Z,19.72
2022-07-29T22:19:27.607Z,19.66
2022-07-29T22:21:58.533Z,19.60
2022-07-29T22:24:28.416Z,19.61
2022-07-29T22:26:57.142Z,19.52
2022-07-29T22:29:27.271Z,19.48
2022-07-29T22:31:55.814Z,19.46
2022-07-29T22:34:24.558Z,19.40
2022-07-29T22:36:57.873Z,19.42
2022-07-29T22:39:28.053Z,19.34
2022-07-29T22:41:56.788Z,19.38
2022-07-29T22:44:25.250Z,19.32
2022-07-29T22:46:54.030Z,19.24
2022-07-29T22:49:23.573Z,19.26
2022-07-29T22:51:52.306Z,19.28
2022-07-29T22:54:20.926Z,19.26
2022-07-29T22:56:51.062Z,19.17
2022-07-29T22:59:19.699Z,19.09
2022-07-29T23:01:48.367Z,19.10
2022-07-29T23:04:17.009Z,19.10
2022-07-29T23:06:45.603Z,19.10
2022-07-29T23:09:14.214Z,19.13
2022-07-29T23:11:42.785Z,19.10
2022-07-29T23:14:12.763Z,19.17
2022-07-29T23:16:41.578Z,19.23
2022-07-29T23:19:10.333Z,19.12
2022-07-29T23:21:39.054Z,19.08
2022-07-29T23:24:07.721Z,19.07
2022-07-29T23:26:36.811Z,19.07
2022-07-29T23:29:05.443Z,19.09
2022-07-29T23:31:35.956Z,19.08
2022-07-29T23:34:10.448Z,18.98
2022-07-29T23:36:39.008Z,19.00
2022-07-29T23:39:11.121Z,18.93
2022-07-29T23:41:40.121Z,18.90
2022-07-29T23:44:08.724Z,18.91
2022-07-29T23:46:38.719Z,18.90
2022-07-29T23:49:07.377Z,18.90
2022-07-29T23:51:35.911Z,18.84
2022-07-29T23:54:04.389Z,18.82
2022-07-29T23:56:33.100Z,18.80
2022-07-29T23:59:03.947Z,18.81
